createdAt,value
2023-02-04T00:00:18.282Z,6.81
2023-02-04T00:01:18.411Z,6.80
2023-02-04T00:02:18.423Z,6.77
2023-02-04T00:03:18.635Z,6.77
2023-02-04T00:04:18.748Z,6.72
2023-02-04T00:05:18.241Z,6.71
2023-02-04T00:06:18.224Z,6.71
2023-02-04T00:07:18.567Z,6.69
2023-02-04T00:08:18.957Z,6.68
2023-02-04T00:09:18.571Z,6.65
2023-02-04T00:10:18.258Z,6.63
2023-02-04T00:11:18.274Z,6.62
2023-02-04T00:12:18.639Z,6.62
2023-02-04T00:13:19.258Z,6.61
2023-02-04T00:14:18.138Z,6.58
2023-02-04T00:15:18.156Z,6.58
2023-02-04T00:16:18.213Z,6.61
2023-02-04T00:17:18.092Z,6.58
2023-02-04T00:18:21.824Z,6.58
2023-02-04T00:19:18.087Z,6.56
2023-02-04T00:20:18.269Z,6.54
2023-02-04T00:21:18.085Z,6.51
2023-02-04T00:22:18.946Z,6.51
2023-02-04T00:23:18.271Z,6.51
2023-02-04T00:24:18.357Z,6.51
2023-02-04T00:25:18.077Z,6.46
2023-02-04T00:26:18.159Z,6.50
2023-02-04T00:27:18.268Z,6.46
2023-02-04T00:28:18.211Z,6.46
2023-02-04T00:29:18.110Z,6.44
2023-02-04T00:30:18.170Z,6.47
2023-02-04T00:31:18.057Z,6.47
2023-02-04T00:32:18.128Z,6.47
2023-02-04T00:33:17.962Z,6.48
2023-02-04T00:34:18.125Z,6.50
2023-02-04T00:35:18.052Z,6.50
2023-02-04T00:36:17.940Z,6.53
2023-02-04T00:37:18.234Z,6.51
2023-02-04T00:38:18.228Z,6.54
2023-02-04T00:39:17.883Z,6.56
2023-02-04T00:40:17.904Z,6.58
2023-02-04T00:41:18.348Z,6.58
2023-02-04T00:42:17.879Z,6.59
2023-02-04T00:43:17.878Z,6.59
2023-02-04T00:44:18.180Z,6.59
2023-02-04T00:45:18.020Z,6.62
2023-02-04T00:46:18.561Z,6.62
2023-02-04T00:47:17.943Z,6.63
2023-02-04T00:48:17.928Z,6.63
2023-02-04T00:49:18.232Z,6.63
2023-02-04T00:50:17.782Z,6.65
2023-02-04T00:51:17.839Z,6.65
2023-02-04T00:52:17.774Z,6.66
2023-02-04T00:53:17.824Z,6.65
2023-02-04T00:54:18.131Z,6.66
2023-02-04T00:55:17.772Z,6.66
2023-02-04T00:56:18.047Z,6.66
2023-02-04T00:57:17.754Z,6.66
2023-02-04T00:58:17.740Z,6.66
2023-02-04T00:59:18.247Z,6.66
2023-02-04T01:00:18.089Z,6.66
2023-02-04T01:01:18.519Z,6.66
2023-02-04T01:02:18.668Z,6.69
2023-02-04T01:03:17.938Z,6.66
2023-02-04T01:04:17.848Z,6.68
2023-02-04T01:05:17.892Z,6.66
2023-02-04T01:06:17.612Z,6.66
2023-02-04T01:07:17.637Z,6.66
2023-02-04T01:08:17.675Z,6.65
2023-02-04T01:09:17.601Z,6.66
2023-02-04T01:10:17.943Z,6.65
2023-02-04T01:11:17.766Z,6.65
2023-02-04T01:12:17.839Z,6.66
2023-02-04T01:13:17.972Z,6.66
2023-02-04T01:14:18.172Z,6.66
2023-02-04T01:15:17.882Z,6.68
2023-02-04T01:16:17.825Z,6.65
2023-02-04T01:17:18.071Z,6.66
2023-02-04T01:18:17.594Z,6.65
2023-02-04T01:19:18.038Z,6.66
2023-02-04T01:20:17.803Z,6.66
2023-02-04T01:21:17.533Z,6.63
2023-02-04T01:22:17.558Z,6.66
2023-02-04T01:23:17.772Z,6.65
2023-02-04T01:24:17.482Z,6.65
2023-02-04T01:25:17.483Z,6.65
2023-02-04T01:26:17.580Z,6.65
2023-02-04T01:27:17.673Z,6.65
2023-02-04T01:28:17.607Z,6.63
2023-02-04T01:29:17.857Z,6.63
2023-02-04T01:30:17.411Z,6.66
2023-02-04T01:31:18.244Z,6.65
2023-02-04T01:32:18.087Z,6.68
2023-02-04T01:33:17.538Z,6.69
2023-02-04T01:34:17.430Z,6.68
2023-02-04T01:35:18.124Z,6.69
2023-02-04T01:36:17.435Z,6.69
2023-02-04T01:37:18.032Z,6.68
2023-02-04T01:38:17.723Z,6.69
2023-02-04T01:39:17.323Z,6.68
2023-02-04T01:40:17.573Z,6.69
2023-02-04T01:41:17.539Z,6.66
2023-02-04T01:42:17.490Z,6.66
2023-02-04T01:43:17.573Z,6.66
2023-02-04T01:44:17.260Z,6.68
2023-02-04T01:45:17.571Z,6.66
2023-02-04T01:46:17.356Z,6.65
2023-02-04T01:47:17.553Z,6.63
2023-02-04T01:48:17.188Z,6.65
2023-02-04T01:49:17.263Z,6.66
2023-02-04T01:50:17.434Z,6.65
2023-02-04T01:51:17.560Z,6.65
2023-02-04T01:52:17.415Z,6.66
2023-02-04T01:53:17.330Z,6.66
2023-02-04T01:54:17.135Z,6.66
2023-02-04T01:55:17.136Z,6.65
2023-02-04T01:56:17.251Z,6.65
2023-02-04T01:57:17.108Z,6.63
2023-02-04T01:58:17.208Z,6.63
2023-02-04T01:59:17.515Z,6.62
2023-02-04T02:00:17.252Z,6.61
2023-02-04T02:01:17.166Z,6.61
2023-02-04T02:02:17.707Z,6.61
2023-02-04T02:03:17.368Z,6.61
2023-02-04T02:04:17.358Z,6.61
2023-02-04T02:05:17.097Z,6.59
2023-02-04T02:06:17.232Z,6.61
2023-02-04T02:07:17.432Z,6.61
2023-02-04T02:08:17.352Z,6.62
2023-02-04T02:09:17.388Z,6.59
2023-02-04T02:10:17.011Z,6.61
2023-02-04T02:11:17.368Z,6.59
2023-02-04T02:12:17.370Z,6.59
2023-02-04T02:13:16.943Z,6.59
2023-02-04T02:14:16.977Z,6.59
2023-02-04T02:15:17.011Z,6.59
2023-02-04T02:16:17.069Z,6.59
2023-02-04T02:17:17.000Z,6.59
2023-02-04T02:18:16.912Z,6.58
2023-02-04T02:19:17.152Z,6.58
2023-02-04T02:20:16.986Z,6.56
2023-02-04T02:21:17.237Z,6.58
2023-02-04T02:22:16.924Z,6.59
2023-02-04T02:23:17.095Z,6.58
2023-02-04T02:24:16.857Z,6.61
2023-02-04T02:25:17.126Z,6.58
2023-02-04T02:26:16.901Z,6.59
2023-02-04T02:27:16.992Z,6.62
2023-02-04T02:28:17.170Z,6.62
2023-02-04T02:29:17.066Z,6.61
2023-02-04T02:30:17.152Z,6.62
2023-02-04T02:31:17.039Z,6.62
2023-02-04T02:32:17.181Z,6.62
2023-02-04T02:33:16.976Z,6.63
2023-02-04T02:34:17.246Z,6.62
2023-02-04T02:35:16.922Z,6.62
2023-02-04T02:36:16.859Z,6.61
2023-02-04T02:37:17.199Z,6.62
2023-02-04T02:38:16.909Z,6.62
2023-02-04T02:39:16.994Z,6.62
2023-02-04T02:40:16.836Z,6.62
2023-02-04T02:41:16.676Z,6.62
2023-02-04T02:42:16.825Z,6.62
2023-02-04T02:43:16.932Z,6.62
2023-02-04T02:44:16.706Z,6.59
2023-02-04T02:45:16.704Z,6.61
2023-02-04T02:46:16.799Z,6.61
2023-02-04T02:47:16.699Z,6.59
2023-02-04T02:48:16.879Z,6.59
2023-02-04T02:49:16.833Z,6.56
2023-02-04T02:50:16.720Z,6.54
2023-02-04T02:51:16.677Z,6.53
2023-02-04T02:52:16.784Z,6.51
2023-02-04T02:53:17.131Z,6.53
2023-02-04T02:54:16.767Z,6.50
2023-02-04T02:55:16.555Z,6.50
2023-02-04T02:56:16.556Z,6.51
2023-02-04T02:57:16.534Z,6.50
2023-02-04T02:58:16.534Z,6.50
2023-02-04T02:59:16.538Z,6.51
2023-02-04T03:00:16.657Z,6.54
2023-02-04T03:01:16.523Z,6.53
2023-02-04T03:02:16.519Z,6.54
2023-02-04T03:03:16.471Z,6.51
2023-02-04T03:04:16.649Z,6.53
2023-02-04T03:05:16.688Z,6.51
2023-02-04T03:06:16.495Z,6.51
2023-02-04T03:07:16.475Z,6.48
2023-02-04T03:08:16.601Z,6.50
2023-02-04T03:09:16.429Z,6.48
2023-02-04T03:10:16.622Z,6.46
2023-02-04T03:11:16.425Z,6.47
2023-02-04T03:12:16.536Z,6.46
2023-02-04T03:13:16.385Z,6.41
2023-02-04T03:14:16.651Z,6.41
2023-02-04T03:15:16.765Z,6.38
2023-02-04T03:16:16.484Z,6.38
2023-02-04T03:17:16.300Z,6.35
2023-02-04T03:18:16.505Z,6.35
2023-02-04T03:19:16.307Z,6.33
2023-02-04T03:20:16.354Z,6.33
2023-02-04T03:21:16.273Z,6.32
2023-02-04T03:22:16.310Z,6.30
2023-02-04T03:23:16.691Z,6.29
2023-02-04T03:24:16.524Z,6.28
2023-02-04T03:25:16.223Z,6.29
2023-02-04T03:26:16.206Z,6.25
2023-02-04T03:27:16.639Z,6.26
2023-02-04T03:28:16.523Z,6.22
2023-02-04T03:29:16.196Z,6.25
2023-02-04T03:30:16.195Z,6.25
2023-02-04T03:31:16.336Z,6.22
2023-02-04T03:32:16.367Z,6.22
2023-02-04T03:33:16.172Z,6.21
2023-02-04T03:34:16.219Z,6.19
2023-02-04T03:35:16.408Z,6.19
2023-02-04T03:36:16.173Z,6.18
2023-02-04T03:37:16.328Z,6.19
2023-02-04T03:38:18.069Z,6.19
2023-02-04T03:39:16.245Z,6.19
2023-02-04T03:40:16.469Z,6.19
2023-02-04T03:41:16.359Z,6.21
2023-02-04T03:42:16.128Z,6.19
2023-02-04T03:43:16.082Z,6.19
2023-02-04T03:44:16.225Z,6.18
2023-02-04T03:45:16.220Z,6.19
2023-02-04T03:46:16.545Z,6.19
2023-02-04T03:47:16.160Z,6.22
2023-02-04T03:48:16.228Z,6.26
2023-02-04T03:49:16.107Z,6.25
2023-02-04T03:50:16.417Z,6.26
2023-02-04T03:51:16.145Z,6.28
2023-02-04T03:52:16.065Z,6.26
2023-02-04T03:53:16.275Z,6.28
2023-02-04T03:54:16.053Z,6.29
2023-02-04T03:55:16.487Z,6.32
2023-02-04T03:56:15.960Z,6.32
2023-02-04T03:57:16.368Z,6.32
2023-02-04T03:58:16.123Z,6.32
2023-02-04T03:59:16.045Z,6.33
2023-02-04T04:00:16.102Z,6.32
2023-02-04T04:01:16.274Z,6.33
2023-02-04T04:02:16.240Z,6.33
2023-02-04T04:03:15.846Z,6.35
2023-02-04T04:04:16.326Z,6.38
2023-02-04T04:05:15.986Z,6.38
2023-02-04T04:06:16.021Z,6.33
2023-02-04T04:07:15.924Z,6.36
2023-02-04T04:08:15.821Z,6.36
2023-02-04T04:09:16.271Z,6.33
2023-02-04T04:10:15.838Z,6.35
2023-02-04T04:11:16.217Z,6.30
2023-02-04T04:12:16.027Z,6.32
2023-02-04T04:13:16.198Z,6.30
2023-02-04T04:14:15.739Z,6.30
2023-02-04T04:15:15.745Z,6.29
2023-02-04T04:16:15.809Z,6.29
2023-02-04T04:17:15.951Z,6.28
2023-02-04T04:18:15.692Z,6.29
2023-02-04T04:19:15.706Z,6.28
2023-02-04T04:20:15.959Z,6.26
2023-02-04T04:21:15.724Z,6.28
2023-02-04T04:22:15.941Z,6.28
2023-02-04T04:23:15.702Z,6.26
2023-02-04T04:24:15.812Z,6.26
2023-02-04T04:25:15.669Z,6.25
2023-02-04T04:26:15.720Z,6.25
2023-02-04T04:27:15.839Z,6.22
2023-02-04T04:28:15.743Z,6.25
2023-02-04T04:29:15.602Z,6.21
2023-02-04T04:30:15.642Z,6.21
2023-02-04T04:31:15.849Z,6.21
2023-02-04T04:32:16.008Z,6.19
2023-02-04T04:33:15.661Z,6.18
2023-02-04T04:34:15.737Z,6.18
2023-02-04T04:35:15.933Z,6.16
2023-02-04T04:36:15.542Z,6.14
2023-02-04T04:37:15.549Z,6.14
2023-02-04T04:38:15.512Z,6.13
2023-02-04T04:39:15.561Z,6.13
2023-02-04T04:40:15.516Z,6.16
2023-02-04T04:41:15.923Z,6.14
2023-02-04T04:42:15.479Z,6.13
2023-02-04T04:43:15.528Z,6.13
2023-02-04T04:44:15.441Z,6.11
2023-02-04T04:45:15.578Z,6.11
2023-02-04T04:46:15.621Z,6.10
2023-02-04T04:47:15.653Z,6.10
2023-02-04T04:48:15.451Z,6.09
2023-02-04T04:49:15.431Z,6.07
2023-02-04T04:50:15.421Z,6.09
2023-02-04T04:51:15.880Z,6.07
2023-02-04T04:52:15.386Z,6.09
2023-02-04T04:53:15.842Z,6.09
2023-02-04T04:54:15.340Z,6.09
2023-02-04T04:55:15.319Z,6.09
2023-02-04T04:56:15.500Z,6.10
2023-02-04T04:57:15.328Z,6.10
2023-02-04T04:58:15.546Z,6.10
2023-02-04T04:59:15.288Z,6.09
2023-02-04T05:00:15.383Z,6.09
2023-02-04T05:01:15.357Z,6.09
2023-02-04T05:02:15.423Z,6.07
2023-02-04T05:03:15.229Z,6.09
2023-02-04T05:04:15.699Z,6.09
2023-02-04T05:05:15.626Z,6.07
2023-02-04T05:06:15.629Z,6.06
2023-02-04T05:07:15.531Z,6.06
2023-02-04T05:08:15.356Z,6.06
2023-02-04T05:09:15.423Z,6.07
2023-02-04T05:10:15.369Z,6.07
2023-02-04T05:11:15.621Z,6.07
2023-02-04T05:12:15.244Z,6.07
2023-02-04T05:13:15.385Z,6.07
2023-02-04T05:14:15.165Z,6.06
2023-02-04T05:15:15.131Z,6.06
2023-02-04T05:16:15.454Z,6.03
2023-02-04T05:17:15.363Z,6.01
2023-02-04T05:18:15.126Z,6.03
2023-02-04T05:19:15.927Z,6.03
2023-02-04T05:20:15.509Z,6.01
2023-02-04T05:21:15.174Z,6.01
2023-02-04T05:22:15.474Z,6.00
2023-02-04T05:23:15.480Z,5.98
2023-02-04T05:24:15.249Z,5.96
2023-02-04T05:25:15.080Z,5.96
2023-02-04T05:26:22.180Z,5.95
2023-02-04T05:27:15.115Z,5.93
2023-02-04T05:28:15.318Z,5.93
2023-02-04T05:29:15.265Z,5.92
2023-02-04T05:30:15.189Z,5.91
2023-02-04T05:31:15.125Z,5.91
2023-02-04T05:32:15.435Z,5.89
2023-02-04T05:33:15.083Z,5.88
2023-02-04T05:34:15.006Z,5.88
2023-02-04T05:35:15.276Z,5.85
2023-02-04T05:36:15.095Z,5.85
2023-02-04T05:37:15.087Z,5.85
2023-02-04T05:38:15.013Z,5.83
2023-02-04T05:39:15.003Z,5.83
2023-02-04T05:40:15.601Z,5.83
2023-02-04T05:41:15.016Z,5.83
2023-02-04T05:42:15.303Z,5.82
2023-02-04T05:43:14.919Z,5.81
2023-02-04T05:44:15.057Z,5.82
2023-02-04T05:45:14.852Z,5.82
2023-02-04T05:46:15.127Z,5.81
2023-02-04T05:47:14.885Z,5.81
2023-02-04T05:48:14.890Z,5.83
2023-02-04T05:49:14.958Z,5.82
2023-02-04T05:50:14.960Z,5.82
2023-02-04T05:51:15.421Z,5.83
2023-02-04T05:52:15.485Z,5.83
2023-02-04T05:53:15.310Z,5.83
2023-02-04T05:54:15.098Z,5.82
2023-02-04T05:55:14.921Z,5.85
2023-02-04T05:56:14.754Z,5.83
2023-02-04T05:57:15.079Z,5.82
2023-02-04T05:58:15.220Z,5.83
2023-02-04T05:59:15.659Z,5.83
2023-02-04T06:00:14.684Z,5.83
2023-02-04T06:01:14.923Z,5.85
2023-02-04T06:02:14.759Z,5.86
2023-02-04T06:03:14.927Z,5.85
2023-02-04T06:04:14.722Z,5.88
2023-02-04T06:05:15.170Z,5.88
2023-02-04T06:06:14.658Z,5.89
2023-02-04T06:07:14.738Z,5.91
2023-02-04T06:08:14.581Z,5.91
2023-02-04T06:09:14.602Z,5.92
2023-02-04T06:10:15.179Z,5.96
2023-02-04T06:11:14.649Z,5.95
2023-02-04T06:12:14.561Z,5.96
2023-02-04T06:13:15.544Z,6.00
2023-02-04T06:14:14.597Z,5.98
2023-02-04T06:15:14.591Z,6.01
2023-02-04T06:16:15.013Z,6.00
2023-02-04T06:17:14.679Z,6.01
2023-02-04T06:18:14.720Z,6.01
2023-02-04T06:19:14.550Z,6.03
2023-02-04T06:20:14.506Z,6.03
2023-02-04T06:21:14.923Z,6.03
2023-02-04T06:22:14.612Z,6.03
2023-02-04T06:23:14.671Z,6.04
2023-02-04T06:24:15.131Z,6.04
2023-02-04T06:25:14.449Z,6.04
2023-02-04T06:26:14.508Z,6.03
2023-02-04T06:27:14.556Z,6.04
2023-02-04T06:28:14.703Z,6.04
2023-02-04T06:29:14.444Z,6.03
2023-02-04T06:30:14.661Z,6.06
2023-02-04T06:31:14.672Z,6.06
2023-02-04T06:32:14.520Z,6.06
2023-02-04T06:33:14.368Z,6.06
2023-02-04T06:34:14.389Z,6.09
2023-02-04T06:35:14.447Z,6.07
2023-02-04T06:36:14.362Z,6.07
2023-02-04T06:37:14.368Z,6.07
2023-02-04T06:38:14.420Z,6.06
2023-02-04T06:39:14.520Z,6.07
2023-02-04T06:40:14.510Z,6.07
2023-02-04T06:41:14.299Z,6.09
2023-02-04T06:42:14.401Z,6.07
2023-02-04T06:43:14.439Z,6.09
2023-02-04T06:44:14.233Z,6.07
2023-02-04T06:45:14.471Z,6.06
2023-02-04T06:46:14.381Z,6.06
2023-02-04T06:47:14.209Z,6.06
2023-02-04T06:48:14.442Z,6.03
2023-02-04T06:49:14.203Z,6.03
2023-02-04T06:50:14.215Z,6.03
2023-02-04T06:51:14.343Z,6.01
2023-02-04T06:52:14.319Z,6.03
2023-02-04T06:53:14.528Z,6.01
2023-02-04T06:54:14.115Z,6.00
2023-02-04T06:55:14.225Z,6.01
2023-02-04T06:56:14.112Z,5.98
2023-02-04T06:57:14.113Z,5.96
2023-02-04T06:58:14.442Z,5.98
2023-02-04T06:59:14.200Z,5.98
2023-02-04T07:00:14.113Z,5.95
2023-02-04T07:01:14.119Z,5.96
2023-02-04T07:02:14.096Z,5.95
2023-02-04T07:03:14.321Z,5.96
2023-02-04T07:04:14.210Z,5.95
2023-02-04T07:05:14.194Z,5.96
2023-02-04T07:06:14.213Z,5.93
2023-02-04T07:07:14.072Z,5.93
2023-02-04T07:08:14.204Z,5.93
2023-02-04T07:09:14.031Z,5.93
2023-02-04T07:10:14.015Z,5.92
2023-02-04T07:11:14.112Z,5.92
2023-02-04T07:12:16.100Z,5.92
2023-02-04T07:13:14.129Z,5.91
2023-02-04T07:14:14.009Z,5.89
2023-02-04T07:15:13.980Z,5.91
2023-02-04T07:16:14.214Z,5.89
2023-02-04T07:17:13.930Z,5.88
2023-02-04T07:18:14.119Z,5.88
2023-02-04T07:19:13.883Z,5.89
2023-02-04T07:20:13.960Z,5.86
2023-02-04T07:21:13.907Z,5.86
2023-02-04T07:22:13.916Z,5.86
2023-02-04T07:23:13.919Z,5.86
2023-02-04T07:24:13.855Z,5.86
2023-02-04T07:25:13.881Z,5.86
2023-02-04T07:26:13.888Z,5.86
2023-02-04T07:27:13.849Z,5.85
2023-02-04T07:28:14.508Z,5.86
2023-02-04T07:29:20.673Z,5.86
2023-02-04T07:30:13.967Z,5.85
2023-02-04T07:31:13.926Z,5.85
2023-02-04T07:32:13.818Z,5.85
2023-02-04T07:33:13.762Z,5.88
2023-02-04T07:34:14.018Z,5.86
2023-02-04T07:35:13.944Z,5.89
2023-02-04T07:36:15.319Z,5.88
2023-02-04T07:37:13.722Z,5.91
2023-02-04T07:38:13.822Z,5.91
2023-02-04T07:39:14.060Z,5.92
2023-02-04T07:40:13.756Z,5.95
2023-02-04T07:41:13.715Z,5.95
2023-02-04T07:42:13.669Z,5.95
2023-02-04T07:43:13.754Z,5.96
2023-02-04T07:44:13.799Z,5.98
2023-02-04T07:45:13.792Z,5.98
2023-02-04T07:46:13.924Z,6.03
2023-02-04T07:47:13.617Z,6.04
2023-02-04T07:48:13.803Z,6.07
2023-02-04T07:49:13.870Z,6.09
2023-02-04T07:50:13.701Z,6.09
2023-02-04T07:51:14.140Z,6.13
2023-02-04T07:52:13.617Z,6.16
2023-02-04T07:53:13.830Z,6.19
2023-02-04T07:54:13.740Z,6.22
2023-02-04T07:55:13.571Z,6.26
2023-02-04T07:56:13.546Z,6.30
2023-02-04T07:57:13.533Z,6.33
2023-02-04T07:58:13.555Z,6.36
2023-02-04T07:59:13.663Z,6.40
2023-02-04T08:00:13.694Z,6.43
2023-02-04T08:01:13.710Z,6.47
2023-02-04T08:02:13.496Z,6.50
2023-02-04T08:03:13.492Z,6.54
2023-02-04T08:04:13.609Z,6.61
2023-02-04T08:05:13.431Z,6.65
2023-02-04T08:06:13.848Z,6.68
2023-02-04T08:07:13.498Z,6.72
2023-02-04T08:08:13.500Z,6.77
2023-02-04T08:09:13.453Z,6.83
2023-02-04T08:10:13.416Z,6.86
2023-02-04T08:11:13.400Z,6.89
2023-02-04T08:12:13.482Z,6.91
2023-02-04T08:13:13.624Z,6.99
2023-02-04T08:14:13.407Z,7.05
2023-02-04T08:15:13.369Z,7.08
2023-02-04T08:16:13.938Z,7.13
2023-02-04T08:17:13.354Z,7.17
2023-02-04T08:18:13.524Z,7.19
2023-02-04T08:19:13.502Z,7.23
2023-02-04T08:20:13.372Z,7.23
2023-02-04T08:21:13.265Z,7.26
2023-02-04T08:22:13.426Z,7.26
2023-02-04T08:23:13.352Z,7.29
2023-02-04T08:24:13.321Z,7.32
2023-02-04T08:25:13.770Z,7.32
2023-02-04T08:26:13.357Z,7.34
2023-02-04T08:27:13.372Z,7.38
2023-02-04T08:28:13.263Z,7.41
2023-02-04T08:29:13.323Z,7.45
2023-02-04T08:30:13.219Z,7.52
2023-02-04T08:31:13.385Z,7.55
2023-02-04T08:32:13.336Z,7.59
2023-02-04T08:33:13.197Z,7.62
2023-02-04T08:34:13.307Z,7.67
2023-02-04T08:35:13.230Z,7.72
2023-02-04T08:36:13.167Z,7.78
2023-02-04T08:37:13.176Z,7.82
2023-02-04T08:38:13.303Z,7.89
2023-02-04T08:39:13.457Z,7.94
2023-02-04T08:40:13.124Z,7.97
2023-02-04T08:41:13.058Z,8.03
2023-02-04T08:42:13.065Z,8.07
2023-02-04T08:43:13.107Z,8.11
2023-02-04T08:44:13.041Z,8.15
2023-02-04T08:45:13.112Z,8.20
2023-02-04T08:46:13.149Z,8.29
2023-02-04T08:47:13.107Z,8.33
2023-02-04T08:48:13.162Z,8.37
2023-02-04T08:49:13.105Z,8.44
2023-02-04T08:50:13.080Z,8.53
2023-02-04T08:51:13.311Z,8.60
2023-02-04T08:52:13.026Z,8.68
2023-02-04T08:53:13.245Z,8.75
2023-02-04T08:54:13.078Z,8.79
2023-02-04T08:55:13.560Z,8.79
2023-02-04T08:56:12.943Z,8.79
2023-02-04T08:57:13.017Z,8.81
2023-02-04T08:58:13.036Z,8.81
2023-02-04T08:59:13.318Z,8.79
2023-02-04T09:00:12.947Z,8.75
2023-02-04T09:01:12.960Z,8.71
2023-02-04T09:02:13.331Z,8.65
2023-02-04T09:03:13.146Z,8.60
2023-02-04T09:04:13.255Z,8.51
2023-02-04T09:05:13.056Z,8.50
2023-02-04T09:06:13.348Z,8.47
2023-02-04T09:07:13.069Z,8.47
2023-02-04T09:08:12.878Z,8.48
2023-02-04T09:09:12.850Z,8.50
2023-02-04T09:10:12.844Z,8.50
2023-02-04T09:11:12.826Z,8.48
2023-02-04T09:12:13.242Z,8.47
2023-02-04T09:13:12.781Z,8.48
2023-02-04T09:14:12.951Z,8.48
2023-02-04T09:15:12.757Z,8.48
2023-02-04T09:16:13.026Z,8.47
2023-02-04T09:17:12.767Z,8.47
2023-02-04T09:18:12.760Z,8.47
2023-02-04T09:19:12.988Z,8.45
2023-02-04T09:20:12.700Z,8.44
2023-02-04T09:21:13.235Z,8.42
2023-02-04T09:22:12.825Z,8.44
2023-02-04T09:23:12.921Z,8.44
2023-02-04T09:24:12.976Z,8.44
2023-02-04T09:25:12.666Z,8.44
2023-02-04T09:26:12.724Z,8.44
2023-02-04T09:27:12.704Z,8.44
2023-02-04T09:28:12.927Z,8.42
2023-02-04T09:29:12.622Z,8.42
2023-02-04T09:30:12.603Z,8.42
2023-02-04T09:31:12.859Z,8.42
2023-02-04T09:32:12.636Z,8.47
2023-02-04T09:33:12.653Z,8.47
2023-02-04T09:34:12.878Z,8.50
2023-02-04T09:35:12.652Z,8.45
2023-02-04T09:36:12.607Z,8.47
2023-02-04T09:37:12.773Z,8.50
2023-02-04T09:38:12.705Z,8.54
2023-02-04T09:39:12.957Z,8.54
2023-02-04T09:40:12.568Z,8.58
2023-02-04T09:41:12.645Z,8.62
2023-02-04T09:42:12.917Z,8.58
2023-02-04T09:43:12.468Z,8.58
2023-02-04T09:44:12.510Z,8.65
2023-02-04T09:45:12.500Z,8.69
2023-02-04T09:46:12.556Z,8.73
2023-02-04T09:47:12.603Z,8.73
2023-02-04T09:48:12.716Z,8.72
2023-02-04T09:49:12.499Z,8.75
2023-02-04T09:50:12.402Z,8.75
2023-02-04T09:51:12.752Z,8.81
2023-02-04T09:52:12.553Z,8.87
2023-02-04T09:53:12.606Z,8.91
2023-02-04T09:54:12.722Z,8.97
2023-02-04T09:55:12.657Z,9.02
2023-02-04T09:56:12.338Z,9.05
2023-02-04T09:57:12.526Z,9.06
2023-02-04T09:58:12.492Z,9.12
2023-02-04T09:59:12.337Z,9.13
2023-02-04T10:00:12.293Z,9.15
2023-02-04T10:01:12.360Z,9.13
2023-02-04T10:02:12.410Z,9.16
2023-02-04T10:03:12.359Z,9.21
2023-02-04T10:04:12.283Z,9.25
2023-02-04T10:05:12.282Z,9.30
2023-02-04T10:06:12.409Z,9.23
2023-02-04T10:07:12.960Z,9.24
2023-02-04T10:08:12.228Z,9.32
2023-02-04T10:09:12.338Z,9.40
2023-02-04T10:10:12.558Z,9.46
2023-02-04T10:11:12.205Z,9.53
2023-02-04T10:12:12.187Z,9.53
2023-02-04T10:13:12.539Z,9.53
2023-02-04T10:14:12.803Z,9.56
2023-02-04T10:15:12.323Z,9.57
2023-02-04T10:16:12.208Z,9.63
2023-02-04T10:17:12.653Z,9.67
2023-02-04T10:18:12.144Z,9.68
2023-02-04T10:19:12.385Z,9.75
2023-02-04T10:20:12.138Z,9.76
2023-02-04T10:21:12.211Z,9.81
2023-02-04T10:22:12.585Z,9.85
2023-02-04T10:23:12.856Z,9.91
2023-02-04T10:24:12.047Z,9.83
2023-02-04T10:25:12.032Z,9.82
2023-02-04T10:26:12.085Z,9.83
2023-02-04T10:27:12.018Z,9.88
2023-02-04T10:28:12.044Z,9.89
2023-02-04T10:29:12.007Z,9.93
2023-02-04T10:30:12.396Z,9.96
2023-02-04T10:31:12.042Z,10.01
2023-02-04T10:32:11.976Z,10.10
2023-02-04T10:33:11.978Z,10.17
2023-02-04T10:34:12.058Z,10.19
2023-02-04T10:35:11.918Z,10.17
2023-02-04T10:36:11.964Z,10.17
2023-02-04T10:37:11.929Z,10.18
2023-02-04T10:38:11.969Z,10.10
2023-02-04T10:39:11.887Z,9.96
2023-02-04T10:40:11.939Z,9.91
2023-02-04T10:41:12.109Z,9.86
2023-02-04T10:42:11.864Z,9.76
2023-02-04T10:43:11.988Z,9.56
2023-02-04T10:44:11.862Z,9.45
2023-02-04T10:45:12.562Z,9.46
2023-02-04T10:46:11.978Z,9.48
2023-02-04T10:47:11.821Z,9.52
2023-02-04T10:48:11.820Z,9.60
2023-02-04T10:49:11.795Z,9.66
2023-02-04T10:50:11.886Z,9.75
2023-02-04T10:51:12.048Z,9.82
2023-02-04T10:52:12.232Z,9.88
2023-02-04T10:53:11.754Z,9.89
2023-02-04T10:54:11.750Z,9.93
2023-02-04T10:55:11.958Z,10.00
2023-02-04T10:56:11.811Z,10.04
2023-02-04T10:57:12.032Z,10.12
2023-02-04T10:58:11.988Z,10.14
2023-02-04T10:59:11.704Z,10.07
2023-02-04T11:00:11.712Z,10.04
2023-02-04T11:01:12.146Z,10.03
2023-02-04T11:02:11.913Z,10.01
2023-02-04T11:03:11.718Z,10.03
2023-02-04T11:04:11.792Z,10.06
2023-02-04T11:05:11.816Z,10.06
2023-02-04T11:06:11.811Z,10.04
2023-02-04T11:07:11.785Z,10.03
2023-02-04T11:08:11.765Z,10.01
2023-02-04T11:09:12.309Z,10.01
2023-02-04T11:10:11.763Z,10.04
2023-02-04T11:11:11.650Z,10.06
2023-02-04T11:12:11.606Z,10.12
2023-02-04T11:13:11.611Z,10.12
2023-02-04T11:14:11.745Z,10.14
2023-02-04T11:15:11.890Z,10.09
2023-02-04T11:16:11.617Z,10.12
2023-02-04T11:17:11.977Z,10.14
2023-02-04T11:18:11.926Z,10.14
2023-02-04T11:19:11.820Z,10.12
2023-02-04T11:20:11.698Z,10.12
2023-02-04T11:21:12.211Z,10.15
2023-02-04T11:22:11.657Z,10.14
2023-02-04T11:23:11.916Z,10.15
2023-02-04T11:24:11.471Z,10.19
2023-02-04T11:25:11.849Z,10.26
2023-02-04T11:26:11.961Z,10.30
2023-02-04T11:27:11.766Z,10.33
2023-02-04T11:28:11.799Z,10.36
2023-02-04T11:29:11.427Z,10.30
2023-02-04T11:30:11.688Z,10.33
2023-02-04T11:31:11.721Z,10.34
2023-02-04T11:32:11.649Z,10.39
2023-02-04T11:33:11.651Z,10.32
2023-02-04T11:34:11.364Z,10.30
2023-02-04T11:35:11.344Z,10.36
2023-02-04T11:36:11.528Z,10.40
2023-02-04T11:37:11.452Z,10.46
2023-02-04T11:38:11.363Z,10.55
2023-02-04T11:39:11.411Z,10.66
2023-02-04T11:40:11.353Z,10.76
2023-02-04T11:41:11.541Z,10.80
2023-02-04T11:42:11.414Z,10.88
2023-02-04T11:43:11.380Z,10.96
2023-02-04T11:44:11.368Z,10.94
2023-02-04T11:45:11.233Z,10.95
2023-02-04T11:46:11.870Z,10.95
2023-02-04T11:47:11.620Z,10.86
2023-02-04T11:48:11.219Z,10.88
2023-02-04T11:49:11.595Z,10.89
2023-02-04T11:50:13.258Z,10.84
2023-02-04T11:51:11.171Z,10.86
2023-02-04T11:52:12.005Z,10.88
2023-02-04T11:53:11.413Z,10.91
2023-02-04T11:54:11.154Z,10.95
2023-02-04T11:55:11.216Z,11.02
2023-02-04T11:56:11.468Z,11.07
2023-02-04T11:57:11.166Z,11.09
2023-02-04T11:58:11.189Z,11.09
2023-02-04T11:59:11.540Z,11.07
2023-02-04T12:00:11.143Z,11.09
2023-02-04T12:01:11.224Z,11.10
2023-02-04T12:02:11.215Z,11.10
2023-02-04T12:03:11.196Z,11.07
2023-02-04T12:04:11.340Z,11.07
2023-02-04T12:05:11.854Z,11.02
2023-02-04T12:06:11.043Z,10.96
2023-02-04T12:07:11.046Z,10.94
2023-02-04T12:08:11.904Z,10.84
2023-02-04T12:09:11.025Z,10.73
2023-02-04T12:10:11.579Z,10.73
2023-02-04T12:11:11.268Z,10.77
2023-02-04T12:12:10.993Z,10.81
2023-02-04T12:13:11.126Z,10.81
2023-02-04T12:14:11.129Z,10.70
2023-02-04T12:15:11.294Z,10.71
2023-02-04T12:16:11.164Z,10.62
2023-02-04T12:17:11.223Z,10.58
2023-02-04T12:18:11.224Z,10.52
2023-02-04T12:19:11.216Z,10.60
2023-02-04T12:20:11.068Z,10.70
2023-02-04T12:21:10.961Z,10.76
2023-02-04T12:22:11.061Z,10.83
2023-02-04T12:23:10.924Z,10.81
2023-02-04T12:24:11.188Z,10.86
2023-02-04T12:25:10.856Z,10.92
2023-02-04T12:26:10.986Z,10.96
2023-02-04T12:27:11.040Z,10.95
2023-02-04T12:28:11.123Z,10.92
2023-02-04T12:29:10.816Z,10.96
2023-02-04T12:30:11.092Z,10.95
2023-02-04T12:31:11.433Z,10.92
2023-02-04T12:32:11.382Z,10.86
2023-02-04T12:33:10.778Z,10.88
2023-02-04T12:34:10.866Z,10.95
2023-02-04T12:35:10.867Z,10.98
2023-02-04T12:36:11.113Z,10.86
2023-02-04T12:37:10.857Z,10.78
2023-02-04T12:38:10.821Z,10.78
2023-02-04T12:39:10.719Z,10.78
2023-02-04T12:40:11.044Z,10.78
2023-02-04T12:41:10.719Z,10.80
2023-02-04T12:42:10.874Z,10.86
2023-02-04T12:43:10.862Z,10.91
2023-02-04T12:44:10.663Z,10.94
2023-02-04T12:45:10.775Z,11.02
2023-02-04T12:46:10.951Z,11.09
2023-02-04T12:47:10.926Z,11.11
2023-02-04T12:48:10.849Z,11.10
2023-02-04T12:49:10.752Z,11.11
2023-02-04T12:50:10.598Z,11.17
2023-02-04T12:51:10.767Z,11.25
2023-02-04T12:52:11.020Z,11.29
2023-02-04T12:53:10.541Z,11.34
2023-02-04T12:54:11.147Z,11.34
2023-02-04T12:55:10.820Z,11.31
2023-02-04T12:56:10.547Z,11.24
2023-02-04T12:57:10.680Z,11.27
2023-02-04T12:58:10.532Z,11.31
2023-02-04T12:59:10.628Z,11.31
2023-02-04T13:00:10.812Z,11.32
2023-02-04T13:01:10.675Z,11.47
2023-02-04T13:02:10.638Z,11.53
2023-02-04T13:03:10.484Z,11.44
2023-02-04T13:04:10.689Z,11.43
2023-02-04T13:05:10.487Z,11.39
2023-02-04T13:06:10.404Z,11.46
2023-02-04T13:07:10.437Z,11.56
2023-02-04T13:08:10.802Z,11.68
2023-02-04T13:09:10.505Z,11.78
2023-02-04T13:10:10.426Z,11.82
2023-02-04T13:11:10.402Z,11.82
2023-02-04T13:12:10.307Z,11.77
2023-02-04T13:13:10.322Z,11.74